Time;durP1;ratioP1;P1;durP2;ratioP2;P2;SDS_P1;SDS_P2;PMS_P1;PMS_P2;Temp;Humidity;BMP_temperature;BMP_pressure;BME280_temperature;BME280_humidity;BME280_pressure;Samples;Min_cycle;Max_cycle;Signal;HPM_P1;HPM_P2
2023/07/19 00:01:25;;;;;;;4.75;3.80;;;21.90;64.80;;;23.59;47.85;97404.00;5031482;28;20041;-57
2023/07/19 00:03:52;;;;;;;8.25;4.15;;;21.90;64.70;;;23.57;48.18;97408.84;5031806;28;20056;-57
2023/07/19 00:06:20;;;;;;;5.90;3.83;;;21.90;65.20;;;23.58;48.03;97406.94;5030251;28;20424;-56
2023/07/19 00:08:48;;;;;;;8.30;4.40;;;21.90;65.30;;;23.54;48.27;97403.91;5031128;28;20045;-56
2023/07/19 00:11:15;;;;;;;6.68;4.07;;;21.90;65.60;;;23.51;48.60;97398.16;5031266;28;20049;-55
2023/07/19 00:13:43;;;;;;;5.63;3.85;;;21.80;66.30;;;23.46;48.78;97398.06;5031529;28;20045;-56
2023/07/19 00:16:10;;;;;;;6.05;4.07;;;21.80;66.80;;;23.45;48.73;97389.09;5031701;28;20053;-57
2023/07/19 00:18:38;;;;;;;6.80;4.72;;;21.70;67.10;;;23.43;48.82;97391.25;5031588;28;20052;-57
2023/07/19 00:21:06;;;;;;;6.32;4.30;;;21.70;67.30;;;23.35;49.28;97380.81;5031600;28;20041;-58
2023/07/19 00:23:34;;;;;;;6.43;3.63;;;21.60;68.00;;;23.33;49.46;97374.81;5031592;28;20040;-57
2023/07/19 00:26:02;;;;;;;6.70;4.50;;;21.60;68.40;;;23.28;49.58;97375.53;5031352;28;20415;-55
2023/07/19 00:28:30;;;;;;;9.13;5.25;;;21.50;68.60;;;23.29;49.51;97379.09;5031569;28;20405;-57
2023/07/19 00:31:04;;;;;;;4.47;3.65;;;21.50;68.20;;;23.29;49.44;97396.22;5030129;28;20057;-55
2023/07/19 00:33:32;;;;;;;6.00;4.03;;;21.50;68.60;;;23.31;49.14;97385.09;5031287;28;20076;-54
2023/07/19 00:36:00;;;;;;;6.35;4.13;;;21.50;67.60;;;23.33;49.20;97380.25;5030027;28;20045;-58
2023/07/19 00:38:27;;;;;;;6.35;3.55;;;21.60;67.00;;;23.34;49.17;97384.59;5030962;28;20416;-57
2023/07/19 00:40:55;;;;;;;5.82;4.30;;;21.70;66.90;;;23.37;49.38;97390.34;5013974;28;20511;-58
2023/07/19 00:43:23;;;;;;;5.00;4.00;;;21.70;67.50;;;23.39;49.75;97385.50;5030720;28;20065;-56
2023/07/19 00:45:55;;;;;;;7.30;4.65;;;21.70;68.10;;;23.39;49.89;97388.22;5032059;28;20492;-51
2023/07/19 00:48:24;;;;;;;8.60;4.38;;;21.70;69.00;;;23.37;50.00;97389.53;5029647;28;20045;-49
2023/07/19 00:50:54;;;;;;;6.18;4.18;;;21.60;69.30;;;23.35;50.19;97383.53;5013856;28;20504;-51
2023/07/19 00:53:24;;;;;;;6.00;4.03;;;21.60;69.80;;;23.33;50.63;97375.63;5030004;28;20049;-51
2023/07/19 00:55:53;;;;;;;7.70;5.47;;;21.60;70.20;;;23.32;50.41;97381.31;5030094;28;20543;-51
2023/07/19 00:58:26;;;;;;;7.07;4.72;;;21.50;70.30;;;23.27;50.59;97384.78;5029803;28;20054;-56
2023/07/19 01:00:53;;;;;;;6.97;4.40;;;21.40;70.70;;;23.25;50.52;97386.09;5029724;28;20046;-57
2023/07/19 01:03:21;;;;;;;7.40;4.30;;;21.40;70.50;;;23.21;50.55;97383.06;5029961;28;20053;-50
2023/07/19 01:05:49;;;;;;;6.00;3.85;;;21.30;70.80;;;23.19;50.60;97386.03;5029970;28;20508;-49
2023/07/19 01:08:18;;;;;;;5.32;4.47;;;21.30;71.20;;;23.18;50.80;97386.25;5030987;28;20045;-51
2023/07/19 01:10:46;;;;;;;5.68;4.05;;;21.30;72.30;;;23.13;50.64;97386.22;5031028;28;20041;-50
2023/07/19 01:13:14;;;;;;;6.70;4.78;;;21.30;71.40;;;23.09;50.56;97379.59;5013903;28;20058;-50
2023/07/19 01:15:42;;;;;;;5.53;3.78;;;21.20;70.80;;;23.04;50.42;97371.41;5038917;28;20061;-49
2023/07/19 01:18:10;;;;;;;4.55;3.65;;;21.20;70.50;;;23.00;50.31;97371.84;5029881;28;20057;-51
2023/07/19 01:20:38;;;;;;;8.15;4.85;;;21.10;70.30;;;22.96;49.93;97364.47;5031058;28;20416;-53
2023/07/19 01:23:06;;;;;;;4.78;4.05;;;21.10;69.80;;;22.95;49.93;97377.22;5030573;28;20045;-47
2023/07/19 01:25:33;;;;;;;5.68;3.83;;;21.10;70.40;;;22.89;49.34;97386.31;5032167;28;20052;-49
2023/07/19 01:28:01;;;;;;;5.82;4.05;;;21.10;68.40;;;22.87;49.32;97383.03;5034697;28;20053;-52
2023/07/19 01:30:29;;;;;;;6.78;4.20;;;21.00;68.00;;;22.84;49.18;97380.00;5034032;28;20054;-50
2023/07/19 01:32:56;;;;;;;6.60;4.20;;;21.00;67.70;;;22.79;49.16;97384.28;5034293;28;20049;-50
2023/07/19 01:35:24;;;;;;;6.18;4.18;;;20.90;67.50;;;22.75;49.29;97383.13;5034512;28;20293;-47
2023/07/19 01:37:53;;;;;;;4.80;3.60;;;20.90;67.70;;;22.71;48.91;97384.69;5034663;28;20045;-47
2023/07/19 01:40:22;;;;;;;8.00;4.57;;;20.90;67.30;;;22.63;48.50;97378.84;5033384;28;20053;-52
2023/07/19 01:42:51;;;;;;;4.80;3.80;;;20.70;66.90;;;22.58;48.78;97374.13;5032809;28;20056;-49
2023/07/19 01:45:19;;;;;;;6.82;4.10;;;20.70;67.20;;;22.56;48.52;97368.13;5032811;28;20049;-50
2023/07/19 01:47:47;;;;;;;6.47;3.28;;;20.70;66.90;;;22.52;48.69;97373.22;5035064;28;20042;-48
2023/07/19 01:50:14;;;;;;;7.80;3.97;;;20.70;66.70;;;22.51;48.44;97373.50;5032952;28;20049;-52
2023/07/19 01:52:42;;;;;;;4.15;3.40;;;20.70;66.30;;;22.50;48.67;97371.84;5033651;28;20460;-49
2023/07/19 01:55:11;;;;;;;5.03;3.63;;;20.70;66.40;;;22.47;48.62;97373.16;5032860;28;20049;-50
2023/07/19 01:57:39;;;;;;;6.22;3.72;;;20.70;66.30;;;22.42;49.12;97373.88;5034152;28;20045;-53
2023/07/19 02:00:08;;;;;;;5.05;3.53;;;20.60;66.80;;;22.37;48.80;97372.94;5032620;28;20049;-51
2023/07/19 02:02:46;;;;;;;4.70;3.38;;;20.50;67.50;;;22.35;49.08;97373.22;5026279;28;20045;-52
2023/07/19 02:05:14;;;;;;;5.65;3.92;;;20.50;67.30;;;22.33;48.79;97369.94;5034171;28;20524;-50
2023/07/19 02:07:41;;;;;;;5.55;3.83;;;20.50;67.40;;;22.32;49.04;97370.16;5032399;28;20050;-49
2023/07/19 02:10:09;;;;;;;5.70;3.63;;;20.50;67.10;;;22.27;48.91;97375.50;5032977;28;20057;-52
2023/07/19 02:12:37;;;;;;;7.82;4.25;;;20.40;66.80;;;22.20;48.50;97368.28;5033419;28;20052;-48
2023/07/19 02:15:05;;;;;;;5.00;4.28;;;20.30;66.60;;;22.17;48.37;97376.09;5032946;28;20057;-50
2023/07/19 02:17:36;;;;;;;4.80;3.53;;;20.30;66.10;;;22.11;48.35;97375.16;5033243;28;20049;-56
2023/07/19 02:20:04;;;;;;;5.10;3.53;;;20.20;66.00;;;22.07;48.59;97381.31;5033667;28;20049;-55
2023/07/19 02:22:32;;;;;;;5.93;3.35;;;20.20;66.30;;;22.05;48.12;97370.72;5033156;28;20048;-57
2023/07/19 02:25:02;;;;;;;5.15;3.30;;;20.20;65.80;;;22.00;48.12;97371.44;5016629;28;20041;-56
2023/07/19 02:27:32;;;;;;;5.80;4.05;;;20.20;65.50;;;21.98;48.18;97378.16;5032808;28;20049;-57
2023/07/19 02:30:02;;;;;;;5.75;4.05;;;20.20;65.10;;;21.95;48.20;97374.03;5033731;28;20056;-57
2023/07/19 02:32:30;;;;;;;5.05;3.10;;;20.10;65.10;;;21.92;48.02;97374.53;5032254;28;20068;-56
2023/07/19 02:34:58;;;;;;;6.25;3.65;;;20.00;65.50;;;21.89;48.58;97376.88;5032495;28;20045;-57
2023/07/19 02:37:25;;;;;;;7.93;4.13;;;20.00;66.10;;;21.83;48.31;97375.97;5032205;28;20045;-57
2023/07/19 02:39:53;;;;;;;6.00;4.35;;;19.90;66.50;;;21.78;48.42;97379.41;5032203;28;20263;-57
2023/07/19 02:42:21;;;;;;;5.50;3.80;;;19.90;66.50;;;21.78;48.49;97381.28;5031742;28;20072;-55
2023/07/19 02:44:49;;;;;;;10.18;5.50;;;19.90;66.10;;;21.76;48.55;97378.00;5033567;28;20036;-54
2023/07/19 02:47:17;;;;;;;6.20;3.47;;;19.90;66.10;;;21.73;48.15;97376.59;5032746;28;20045;-54
2023/07/19 02:49:44;;;;;;;5.53;3.70;;;19.90;65.70;;;21.70;48.19;97377.06;5032490;28;20041;-57
2023/07/19 02:52:12;;;;;;;4.57;3.40;;;19.80;65.50;;;21.67;48.55;97379.41;5032938;28;20046;-56
2023/07/19 02:54:40;;;;;;;5.80;3.25;;;19.80;65.70;;;21.62;48.22;97380.97;5031617;28;20528;-55
2023/07/19 02:57:07;;;;;;;3.45;2.65;;;19.70;66.00;;;21.61;48.62;97386.63;5032530;28;20511;-57
2023/07/19 02:59:35;;;;;;;6.00;3.58;;;19.70;66.50;;;21.57;48.91;97399.00;5033047;28;20493;-56
2023/07/19 03:02:03;;;;;;;7.50;3.55;;;19.60;67.10;;;21.53;49.08;97395.94;5031410;28;20038;-55
2023/07/19 03:04:31;;;;;;;6.07;3.78;;;19.60;67.10;;;21.52;49.06;97396.16;5033077;28;20110;-59
2023/07/19 03:06:59;;;;;;;6.03;3.75;;;19.70;67.00;;;21.51;48.76;97405.38;5032398;28;20052;-57
2023/07/19 03:09:26;;;;;;;4.68;3.30;;;19.70;67.00;;;21.49;49.00;97408.31;5030557;28;20048;-57
2023/07/19 03:11:54;;;;;;;5.45;3.78;;;19.70;67.00;;;21.49;48.91;97416.44;5030944;28;20440;-57
2023/07/19 03:14:22;;;;;;;5.97;3.80;;;19.60;67.00;;;21.45;48.99;97417.97;5033193;28;20504;-55
2023/07/19 03:16:49;;;;;;;5.63;3.55;;;19.60;67.20;;;21.42;48.91;97421.94;5031441;28;20053;-54
2023/07/19 03:19:17;;;;;;;5.18;3.58;;;19.50;67.30;;;;;;5031725;28;20054;-57
2023/07/19 03:21:45;;;;;;;5.07;4.00;;;19.50;67.80;;;21.36;49.48;97416.63;5030766;28;20057;-56
2023/07/19 03:24:13;;;;;;;6.05;3.30;;;19.50;68.20;;;21.35;49.55;97423.13;5031078;28;20053;-56
2023/07/19 03:26:41;;;;;;;5.75;4.22;;;19.50;68.10;;;21.35;49.69;97413.09;5030819;28;20536;-56
2023/07/19 03:29:08;;;;;;;4.68;3.40;;;19.50;67.80;;;21.34;49.62;97419.56;5031125;28;20505;-57
2023/07/19 03:31:36;;;;;;;5.45;3.50;;;19.50;68.00;;;21.32;49.75;97418.97;5030944;28;20444;-55
2023/07/19 03:34:04;;;;;;;4.75;3.55;;;19.50;68.00;;;21.33;50.01;97428.75;5032501;28;20397;-56
2023/07/19 03:36:31;;;;;;;4.30;3.65;;;19.60;67.90;;;21.32;49.67;97432.53;5030862;28;20060;-57
2023/07/19 03:38:59;;;;;;;5.00;3.58;;;19.60;68.20;;;21.31;50.45;97430.06;5014122;28;20052;-57
2023/07/19 03:41:27;;;;;;;7.43;4.68;;;19.50;69.00;;;21.27;50.69;97437.84;5030829;28;20046;-56
2023/07/19 03:43:54;;;;;;;9.82;4.53;;;19.40;69.80;;;21.28;50.67;97428.63;5023146;28;20048;-57
2023/07/19 03:46:22;;;;;;;6.57;4.07;;;19.50;70.00;;;21.29;50.69;97429.47;5031737;28;20052;-57
2023/07/19 03:48:50;;;;;;;5.82;4.05;;;19.50;69.90;;;21.30;50.63;97425.69;4997437;28;20053;-56
2023/07/19 03:51:19;;;;;;;5.60;4.10;;;19.50;69.70;;;21.31;50.13;97430.88;5030580;28;20049;-57
2023/07/19 03:53:48;;;;;;;5.57;3.45;;;19.50;69.30;;;21.33;50.64;97433.38;5030969;28;20060;-56
2023/07/19 03:56:16;;;;;;;8.15;4.15;;;19.60;69.30;;;21.35;50.58;97432.06;5031203;28;20050;-57
2023/07/19 03:58:48;;;;;;;6.00;3.75;;;19.60;68.90;;;21.36;50.32;97433.69;5030712;28;20061;-57
2023/07/19 04:01:16;;;;;;;4.72;3.17;;;19.70;68.70;;;;;;5030477;28;20444;-56
2023/07/19 04:03:44;;;;;;;6.53;3.40;;;19.70;68.70;;;21.38;50.05;97436.16;5030136;28;20049;-57
2023/07/19 04:06:15;;;;;;;5.45;3.70;;;19.70;68.60;;;21.39;50.53;97435.94;5030548;28;20520;-54
2023/07/19 04:08:43;;;;;;;5.35;3.35;;;19.70;68.50;;;21.41;50.45;97433.00;5031638;28;20045;-54
2023/07/19 04:11:10;;;;;;;7.15;4.05;;;19.70;68.50;;;21.39;50.05;97435.94;5029720;28;20049;-56
2023/07/19 04:13:38;;;;;;;7.25;4.07;;;19.80;68.10;;;21.45;50.13;97436.91;5031552;28;20056;-57
2023/07/19 04:16:06;;;;;;;4.97;3.70;;;19.90;67.90;;;21.48;50.09;97436.47;5029939;28;20064;-57
2023/07/19 04:18:34;;;;;;;5.63;3.80;;;20.00;67.60;;;21.54;50.17;97437.38;5030731;28;20540;-57
2023/07/19 04:21:02;;;;;;;8.45;3.75;;;20.00;67.10;;;21.59;50.32;97442.91;5030223;28;20523;-53
2023/07/19 04:23:30;;;;;;;6.22;3.50;;;20.20;66.80;;;21.65;50.15;97439.25;5031449;28;20045;-53
2023/07/19 04:26:00;;;;;;;6.40;3.58;;;20.20;66.60;;;21.71;49.77;97440.19;5022726;28;20049;-57
2023/07/19 04:28:30;;;;;;;5.32;4.20;;;20.20;66.60;;;21.76;50.04;97435.69;5030252;28;20049;-57
2023/07/19 04:30:59;;;;;;;5.68;3.97;;;20.30;66.50;;;21.83;49.79;97432.88;5022189;28;20041;-55
2023/07/19 04:33:27;;;;;;;6.13;3.55;;;20.40;66.40;;;21.88;49.94;97432.16;5030627;28;20046;-56
2023/07/19 04:35:55;;;;;;;4.50;3.75;;;20.40;66.30;;;21.88;49.95;97432.16;5030532;28;20421;-56
2023/07/19 04:38:23;;;;;;;7.05;4.13;;;20.30;66.40;;;21.90;49.85;97428.13;5030088;28;20049;-55
2023/07/19 04:40:52;;;;;;;6.78;4.00;;;20.40;66.30;;;21.89;49.92;97423.78;5031488;28;20412;-55
2023/07/19 04:43:20;;;;;;;5.70;3.67;;;20.40;66.30;;;21.93;50.02;97429.56;5029462;28;20045;-57
2023/07/19 04:45:53;;;;;;;6.63;4.30;;;20.40;66.30;;;21.93;49.73;97424.16;5030146;28;20524;-56
2023/07/19 04:48:20;;;;;;;5.10;3.55;;;20.50;66.10;;;21.96;49.60;97424.47;5013387;28;20056;-57
2023/07/19 04:50:56;;;;;;;6.25;3.88;;;20.50;66.10;;;22.00;49.58;97428.38;5030294;28;20046;-57
2023/07/19 04:53:25;;;;;;;5.82;3.38;;;20.60;65.80;;;22.03;49.41;97424.34;5029686;28;20385;-55
2023/07/19 04:55:55;;;;;;;8.50;4.72;;;20.60;65.70;;;22.05;49.79;97429.53;5029687;28;20049;-55
2023/07/19 04:58:24;;;;;;;4.57;3.15;;;20.60;65.80;;;22.08;49.39;97419.03;5030126;28;20052;-56
2023/07/19 05:00:52;;;;;;;5.90;3.45;;;20.60;65.50;;;22.11;49.27;97423.13;5031613;28;20050;-54
2023/07/19 05:03:21;;;;;;;5.97;3.50;;;20.70;65.50;;;22.13;49.23;97418.31;5033201;28;20420;-56
2023/07/19 05:05:49;;;;;;;5.07;3.88;;;20.70;65.50;;;22.16;49.40;97417.84;5035213;28;20311;-57
2023/07/19 05:08:18;;;;;;;7.15;3.72;;;20.70;65.30;;;22.07;49.48;97411.13;5033716;28;20420;-58
2023/07/19 05:10:45;;;;;;;6.40;3.90;;;20.70;65.70;;;22.14;49.35;97420.78;5034254;28;20061;-59
2023/07/19 05:13:14;;;;;;;4.40;3.63;;;20.70;65.50;;;22.18;49.55;97411.09;5033487;28;20053;-58
2023/07/19 05:15:41;;;;;;;7.40;3.72;;;20.80;65.50;;;22.22;49.47;97396.00;5033470;28;20300;-58
2023/07/19 05:18:13;;;;;;;5.60;4.03;;;20.80;65.50;;;22.27;49.40;97399.88;5033121;28;20045;-59
2023/07/19 05:20:40;;;;;;;6.63;4.45;;;20.90;65.40;;;22.32;49.59;97398.09;5033833;28;20049;-56
2023/07/19 05:23:08;;;;;;;5.10;3.85;;;20.90;65.20;;;22.38;49.37;97404.44;5034552;28;20044;-58
2023/07/19 05:25:36;;;;;;;5.93;3.85;;;21.00;65.00;;;22.40;49.42;97402.31;5034346;28;20255;-59
2023/07/19 05:28:04;;;;;;;7.25;4.10;;;21.00;65.10;;;22.43;49.38;97401.84;5034630;28;20045;-60
2023/07/19 05:30:31;;;;;;;6.30;3.53;;;21.10;65.00;;;22.49;49.49;97400.84;5034812;28;20052;-59
2023/07/19 05:32:59;;;;;;;5.05;3.88;;;21.10;65.10;;;22.51;49.34;97398.72;5033128;28;20552;-60
2023/07/19 05:35:27;;;;;;;8.18;5.35;;;21.10;65.20;;;22.54;49.32;97403.63;5034786;28;20493;-59
2023/07/19 05:37:54;;;;;;;4.90;3.83;;;21.20;65.20;;;22.60;49.32;97401.84;5034726;28;20045;-58
2023/07/19 05:40:25;;;;;;;4.70;3.50;;;21.20;65.00;;;22.65;49.17;97406.56;5034456;28;20049;-58
2023/07/19 05:42:52;;;;;;;6.93;4.03;;;21.30;64.90;;;22.69;49.67;97410.41;5034892;28;20057;-60
2023/07/19 05:45:20;;;;;;;6.25;4.35;;;21.40;65.00;;;22.72;49.59;97408.03;5034547;28;20045;-59
2023/07/19 05:47:48;;;;;;;4.90;3.60;;;21.50;65.00;;;22.76;49.45;97411.91;5033988;28;20045;-59
2023/07/19 05:50:15;;;;;;;7.13;3.78;;;21.50;64.80;;;22.82;49.19;97412.81;5034582;28;20038;-57
2023/07/19 05:52:43;;;;;;;9.35;3.70;;;21.60;64.60;;;22.84;49.30;97410.69;5033993;28;20513;-56
2023/07/19 05:55:11;;;;;;;4.43;3.22;;;21.60;64.80;;;22.89;49.61;97412.66;5034359;28;20049;-60
2023/07/19 05:57:39;;;;;;;5.78;3.55;;;21.60;64.60;;;22.88;49.81;97428.13;5034674;28;20057;-49
2023/07/19 06:00:18;;;;;;;5.80;4.47;;;21.70;64.90;;;22.93;49.69;97414.63;5034148;28;20054;-50
2023/07/19 06:02:49;;;;;;;5.57;3.78;;;21.70;64.80;;;22.97;49.54;97415.78;5033552;28;20045;-49
2023/07/19 06:05:19;;;;;;;6.57;3.97;;;21.80;65.50;;;23.05;49.41;97422.75;5034060;28;20041;-48
2023/07/19 06:07:47;;;;;;;6.72;4.07;;;21.80;64.30;;;22.99;49.31;97420.94;5031663;28;20393;-50
2023/07/19 06:10:15;;;;;;;5.45;4.25;;;21.90;64.00;;;23.05;49.40;97421.88;5033045;28;20049;-50
2023/07/19 06:12:44;;;;;;;6.38;4.50;;;21.90;64.40;;;23.09;49.36;97429.31;5033425;28;20493;-49
2023/07/19 06:15:12;;;;;;;6.88;4.22;;;21.90;63.80;;;23.14;48.88;97432.09;5032827;28;20068;-47
2023/07/19 06:17:43;;;;;;;6.05;3.72;;;22.00;63.60;;;23.21;48.81;97434.66;5034273;28;20068;-50
2023/07/19 06:20:11;;;;;;;7.45;4.63;;;22.00;63.30;;;23.25;49.13;97440.41;5025962;28;20056;-47
2023/07/19 06:22:39;;;;;;;7.88;3.88;;;22.10;63.10;;;23.26;49.12;97440.16;5033543;28;20049;-48
2023/07/19 06:25:07;;;;;;;7.43;4.55;;;22.10;63.20;;;23.33;48.73;97434.56;5031736;28;20049;-48
2023/07/19 06:27:35;;;;;;;5.18;3.45;;;22.20;62.80;;;23.39;48.57;97445.25;5032102;28;20057;-50
2023/07/19 06:30:03;;;;;;;5.07;3.55;;;22.30;62.40;;;23.35;48.84;97444.09;5033527;28;20045;-45
2023/07/19 06:32:31;;;;;;;5.68;3.33;;;22.40;62.40;;;23.47;48.60;97445.91;5033486;28;20045;-49
2023/07/19 06:34:59;;;;;;;4.95;3.20;;;22.40;62.30;;;23.49;48.73;97447.28;5032489;28;20053;-46
2023/07/19 06:37:26;;;;;;;5.35;3.28;;;22.40;62.10;;;23.56;48.59;97444.41;5032548;28;20493;-47
2023/07/19 06:39:54;;;;;;;8.27;3.97;;;22.50;62.20;;;23.62;48.53;97446.13;5033017;28;20524;-47
2023/07/19 06:42:21;;;;;;;6.50;3.70;;;22.60;62.20;;;23.64;48.59;97448.59;5033156;28;20045;-47
2023/07/19 06:44:49;;;;;;;5.75;3.55;;;22.60;61.80;;;23.69;48.32;97444.06;5033475;28;20060;-48
2023/07/19 06:47:17;;;;;;;5.75;3.75;;;22.70;61.30;;;23.74;48.09;97448.75;5024136;28;20042;-47
2023/07/19 06:49:44;;;;;;;4.70;3.53;;;22.80;60.80;;;23.73;47.58;97447.94;5033110;28;20060;-50
2023/07/19 06:52:12;;;;;;;5.18;3.55;;;22.80;59.70;;;23.81;46.23;97449.41;5032897;28;20048;-47
2023/07/19 06:54:39;;;;;;;4.97;2.80;;;23.00;56.00;;;23.80;44.84;97452.38;5033209;28;20045;-42
2023/07/19 06:57:07;;;;;;;7.60;3.72;;;23.00;54.30;;;23.86;44.34;97454.91;5032945;28;20057;-50
2023/07/19 06:59:35;;;;;;;5.35;3.13;;;23.20;53.10;;;23.77;43.79;97453.69;5032065;28;20053;-46
2023/07/19 07:02:03;;;;;;;6.93;3.83;;;23.20;52.10;;;23.98;44.39;97458.34;5032786;28;20045;-47
2023/07/19 07:04:30;;;;;;;4.40;3.03;;;23.30;54.30;;;24.12;43.89;97456.06;5033031;28;20519;-45
2023/07/19 07:06:58;;;;;;;6.07;3.67;;;23.30;52.30;;;24.19;43.71;97447.72;5015034;28;20048;-46
2023/07/19 07:09:27;;;;;;;7.43;3.55;;;23.40;53.10;;;24.17;42.83;97464.31;5033066;28;20037;-49
2023/07/19 07:11:55;;;;;;;5.60;3.55;;;23.50;51.60;;;24.17;42.50;97455.28;5019750;28;20493;-48
2023/07/19 07:14:22;;;;;;;4.40;2.90;;;23.50;50.50;;;24.23;42.04;97454.28;5034566;28;20034;-49
2023/07/19 07:16:50;;;;;;;4.68;2.90;;;23.60;50.20;;;24.29;41.89;97450.56;5026631;28;20725;-47
2023/07/19 07:19:17;;;;;;;4.07;2.75;;;23.70;50.40;;;24.32;42.27;97450.03;5025599;28;20049;-50
2023/07/19 07:21:45;;;;;;;6.32;2.85;;;23.70;50.80;;;24.37;41.23;97454.75;5027675;28;20058;-51
2023/07/19 07:24:12;;;;;;;5.15;2.97;;;23.70;49.00;;;24.41;40.56;97442.25;5025656;28;20048;-48
2023/07/19 07:26:40;;;;;;;5.45;2.95;;;23.80;47.30;;;24.56;40.76;97455.22;5026952;28;20041;-51
2023/07/19 07:29:08;;;;;;;4.20;3.00;;;23.90;48.60;;;24.64;40.79;97446.63;5027462;28;20056;-48
2023/07/19 07:31:36;;;;;;;4.28;3.20;;;23.90;48.10;;;24.64;40.06;97438.47;5011484;28;20552;-46
2023/07/19 07:34:04;;;;;;;4.63;2.67;;;24.00;47.10;;;24.64;39.29;97446.63;5027427;28;20044;-47
2023/07/19 07:36:31;;;;;;;4.47;2.50;;;24.00;46.40;;;24.71;39.44;97439.06;5026766;28;20041;-49
2023/07/19 07:38:59;;;;;;;6.25;2.42;;;24.10;45.80;;;24.71;38.90;97438.25;5024457;28;20045;-46
2023/07/19 07:41:26;;;;;;;4.72;2.70;;;24.10;45.90;;;24.72;38.82;97448.06;5014132;28;20045;-51
2023/07/19 07:43:54;;;;;;;3.65;2.78;;;24.10;45.60;;;24.68;38.64;97445.03;5025747;28;20045;-46
2023/07/19 07:46:21;;;;;;;5.70;2.35;;;24.00;45.40;;;24.79;37.97;97445.13;5025114;28;20044;-47
2023/07/19 07:48:49;;;;;;;5.35;2.92;;;24.10;44.80;;;24.91;38.84;97438.44;5027098;28;20076;-46
2023/07/19 07:51:17;;;;;;;4.55;2.58;;;24.20;46.00;;;24.98;38.11;97442.84;5025057;28;20057;-50
2023/07/19 07:53:45;;;;;;;4.18;2.22;;;24.30;44.10;;;25.06;38.21;97443.19;5027484;28;20052;-48
2023/07/19 07:56:13;;;;;;;5.18;2.97;;;24.40;45.00;;;25.08;37.87;97443.75;5031065;28;20045;-46
2023/07/19 07:58:44;;;;;;;3.20;2.55;;;24.40;44.60;;;25.11;37.41;97442.41;5031972;28;20041;-45
2023/07/19 08:01:11;;;;;;;4.60;2.55;;;24.40;42.90;;;25.11;37.77;97440.50;5031993;28;20080;-50
2023/07/19 08:03:39;;;;;;;2.63;2.42;;;24.50;43.90;;;25.27;37.80;97441.47;5031954;28;20045;-50
2023/07/19 08:06:07;;;;;;;4.22;3.00;;;24.60;44.60;;;25.23;37.26;97447.72;5031751;28;20413;-45
2023/07/19 08:08:34;;;;;;;5.55;2.42;;;24.60;43.60;;;25.28;36.89;97451.31;5030558;28;20525;-45
2023/07/19 08:11:05;;;;;;;4.55;2.50;;;24.60;43.30;;;25.32;36.79;97446.16;5032412;28;20037;-59
2023/07/19 08:13:33;;;;;;;3.90;2.30;;;24.60;42.40;;;25.40;36.96;97456.56;5031468;28;20076;-59
2023/07/19 08:16:03;;;;;;;3.65;2.35;;;24.60;42.90;;;25.39;35.63;97449.47;5030185;28;20056;-59
2023/07/19 08:18:31;;;;;;;5.70;3.28;;;24.60;40.70;;;25.39;35.89;97460.34;5031309;28;20550;-59
2023/07/19 08:20:59;;;;;;;3.15;2.22;;;24.70;41.00;;;25.43;35.82;97455.22;5031747;28;20049;-59
2023/07/19 08:23:26;;;;;;;7.25;3.08;;;24.70;41.50;;;25.50;35.53;97447.63;5026686;28;20042;-59
2023/07/19 08:25:58;;;;;;;4.93;2.30;;;24.70;41.30;;;25.50;34.72;97451.19;5030560;28;20041;-59
2023/07/19 08:28:25;;;;;;;5.00;2.38;;;24.80;39.90;;;25.42;34.70;97451.66;5023694;28;20417;-60
2023/07/19 08:30:54;;;;;;;3.03;2.40;;;24.90;39.90;;;25.60;35.10;97449.59;5031561;28;20041;-60
2023/07/19 08:33:24;;;;;;;3.80;2.78;;;24.90;40.00;;;25.64;35.00;97446.09;5023163;28;20068;-60
2023/07/19 08:35:51;;;;;;;4.13;2.25;;;24.90;40.70;;;25.68;35.00;97444.47;5016268;28;20064;-60
2023/07/19 08:38:19;;;;;;;3.03;2.00;;;24.90;40.60;;;25.65;32.77;97449.63;5018957;28;20041;-60
2023/07/19 08:41:02;;;;;;;3.35;1.85;;;25.00;36.20;;;25.79;32.96;97445.34;5031187;28;20512;-60
2023/07/19 08:43:33;;;;;;;;;;;25.00;36.50;;;25.71;31.37;97451.31;5031275;28;20045;-60
2023/07/19 08:46:01;;;;;;;2.42;2.08;;;25.10;35.00;;;25.83;32.84;97443.75;5031166;28;19928;-60
2023/07/19 08:48:34;;;;;;;3.45;1.88;;;25.00;37.60;;;25.84;31.93;97439.09;5046953;28;20045;-60
2023/07/19 08:51:03;;;;;;;4.88;2.15;;;25.00;36.00;;;25.93;31.72;97434.81;5030925;28;20482;-60
2023/07/19 08:53:31;;;;;;;4.18;2.22;;;25.10;34.80;;;26.03;32.06;97445.78;5030027;28;20065;-60
2023/07/19 08:55:58;;;;;;;3.05;2.30;;;25.20;35.80;;;26.11;32.21;97433.53;5030872;28;20115;-60
2023/07/19 08:58:26;;;;;;;5.10;2.35;;;25.40;36.30;;;26.13;31.84;97428.63;5030909;28;20112;-60
2023/07/19 09:00:54;;;;;;;2.10;1.83;;;25.30;34.70;;;26.07;31.23;97433.25;5031133;28;20041;-60
2023/07/19 09:03:21;;;;;;;6.07;2.38;;;25.30;35.10;;;25.97;30.55;97429.66;5030667;28;20041;-60
2023/07/19 09:05:53;;;;;;;2.85;2.25;;;25.40;33.00;;;26.02;30.17;97435.97;5026566;28;20429;-60
2023/07/19 09:08:33;;;;;;;3.45;2.00;;;25.40;33.20;;;26.00;29.85;97426.38;5029847;28;20485;-61
2023/07/19 09:11:00;;;;;;;4.70;2.60;;;25.40;32.40;;;26.09;30.23;97422.06;5022045;28;20049;-60
2023/07/19 09:13:32;;;;;;;6.28;2.47;;;25.40;33.60;;;26.18;29.80;97417.75;5030872;28;20033;-60
2023/07/19 09:16:04;;;;;;;4.03;2.45;;;25.40;31.80;;;26.24;30.04;97408.47;5028895;28;20041;-60
2023/07/19 09:18:38;;;;;;;2.72;2.05;;;25.40;34.00;;;26.27;29.68;97407.16;5031476;28;20045;-60
2023/07/19 09:21:06;;;;;;;2.17;1.83;;;25.40;33.00;;;26.28;29.82;97401.41;5031372;28;20402;-60
2023/07/19 09:23:36;;;;;;;1.92;1.80;;;25.50;32.90;;;26.31;29.33;97400.06;5031090;28;20050;-60
2023/07/19 09:26:05;;;;;;;4.50;2.38;;;25.60;32.80;;;26.32;29.67;97398.97;5029371;28;20068;-60
2023/07/19 09:28:34;;;;;;;3.42;2.35;;;25.50;33.30;;;26.32;29.42;97397.03;5030747;28;20659;-60
2023/07/19 09:31:05;;;;;;;3.17;2.30;;;25.60;32.40;;;26.37;29.63;97403.63;5026313;28;20042;-60
2023/07/19 09:33:36;;;;;;;4.53;1.98;;;25.60;32.60;;;26.48;29.92;97395.19;5030462;28;20489;-60
2023/07/19 09:36:04;;;;;;;3.17;2.33;;;25.70;33.90;;;26.50;29.96;97395.75;5030672;28;20413;-60
2023/07/19 09:38:31;;;;;;;4.88;2.22;;;25.70;33.50;;;26.59;29.34;97395.22;5030723;28;20045;-60
2023/07/19 09:40:59;;;;;;;3.72;2.42;;;25.70;33.20;;;26.67;30.03;97397.41;5030524;28;20045;-60
2023/07/19 09:43:27;;;;;;;4.88;2.53;;;25.80;33.50;;;26.70;29.25;97399.63;5029198;28;20044;-60
2023/07/19 09:45:56;;;;;;;3.10;2.13;;;25.80;33.10;;;26.70;29.25;97389.50;5030979;28;20045;-60
2023/07/19 09:48:25;;;;;;;3.47;2.47;;;25.80;32.90;;;26.76;29.21;97386.78;5033304;28;20046;-60
2023/07/19 09:50:57;;;;;;;3.35;2.00;;;25.80;32.10;;;26.81;28.49;97390.34;5034491;28;20288;-61
2023/07/19 09:53:26;;;;;;;3.47;2.13;;;25.90;31.00;;;26.73;28.78;97384.59;5033449;28;20045;-61
2023/07/19 09:55:55;;;;;;;3.13;2.25;;;25.90;32.40;;;26.84;28.33;97380.78;5034378;28;20069;-60
2023/07/19 09:58:24;;;;;;;2.92;2.00;;;25.90;31.30;;;26.90;28.93;97376.94;5033141;28;20045;-60
2023/07/19 10:00:52;;;;;;;3.75;2.35;;;25.90;32.50;;;26.95;28.81;97376.97;5033260;28;20037;-60
2023/07/19 10:03:21;;;;;;;2.65;2.00;;;26.00;32.80;;;26.96;28.97;97378.59;5032822;28;20042;-61
2023/07/19 10:05:57;;;;;;;4.38;2.20;;;26.00;32.80;;;26.94;28.51;97382.69;5033162;28;20055;-60
2023/07/19 10:08:25;;;;;;;2.88;2.10;;;26.00;31.60;;;26.97;29.26;97376.66;5033761;28;20429;-60
2023/07/19 10:11:01;;;;;;;3.38;2.40;;;26.00;32.50;;;26.88;28.96;97373.69;5033035;28;20041;-61
2023/07/19 10:13:52;;;;;;;4.13;2.22;;;26.20;32.70;;;27.02;29.20;97365.75;5032494;28;20501;-60
2023/07/19 10:16:37;;;;;;;3.88;2.25;;;26.30;32.40;;;27.18;28.88;97378.31;5026505;28;20068;-60
2023/07/19 10:19:11;;;;;;;6.40;2.65;;;26.50;32.00;;;27.16;28.80;97380.50;5033926;28;20052;-60
2023/07/19 10:22:02;;;;;;;5.72;2.08;;;26.60;31.70;;;27.36;28.84;97376.94;5026397;28;20048;-61
2023/07/19 10:24:37;;;;;;;3.72;2.42;;;26.70;31.40;;;27.44;28.91;97372.81;5032855;28;20041;-61
2023/07/19 10:27:08;;;;;;;3.08;2.25;;;26.80;31.60;;;27.53;28.21;97382.09;5032736;28;20632;-61